sensor_id;sensor_type;location;lat;lon;timestamp;P1;durP1;ratioP1;P2;durP2;ratioP2
61104;SDS011;46987;32.638;-115.438;2022-12-24T00:00:10;16.08;;;7.03;;
61104;SDS011;46987;32.638;-115.438;2022-12-24T00:02:37;16.45;;;8.90;;
61104;SDS011;46987;32.638;-115.438;2022-12-24T00:05:04;16.38;;;6.85;;
61104;SDS011;46987;32.638;-115.438;2022-12-24T00:07:31;20.45;;;7.20;;
61104;SDS011;46987;32.638;-115.438;2022-12-24T00:09:58;14.05;;;7.15;;
61104;SDS011;46987;32.638;-115.438;2022-12-24T00:12:26;16.50;;;6.82;;
61104;SDS011;46987;32.638;-115.438;2022-12-24T00:14:52;23.10;;;6.85;;
61104;SDS011;46987;32.638;-115.438;2022-12-24T00:17:19;13.82;;;6.53;;
61104;SDS011;46987;32.638;-115.438;2022-12-24T00:19:45;13.15;;;5.93;;
61104;SDS011;46987;32.638;-115.438;2022-12-24T00:22:12;18.35;;;6.30;;
61104;SDS011;46987;32.638;-115.438;2022-12-24T00:24:41;18.20;;;6.07;;
61104;SDS011;46987;32.638;-115.438;2022-12-24T00:27:08;15.93;;;7.28;;
61104;SDS011;46987;32.638;-115.438;2022-12-24T00:29:36;17.92;;;6.10;;
61104;SDS011;46987;32.638;-115.438;2022-12-24T00:32:03;27.90;;;8.00;;
61104;SDS011;46987;32.638;-115.438;2022-12-24T00:34:34;15.02;;;6.38;;
61104;SDS011;46987;32.638;-115.438;2022-12-24T00:37:01;17.60;;;6.53;;
61104;SDS011;46987;32.638;-115.438;2022-12-24T00:39:28;25.45;;;7.90;;
61104;SDS011;46987;32.638;-115.438;2022-12-24T00:41:54;20.55;;;7.15;;
61104;SDS011;46987;32.638;-115.438;2022-12-24T00:44:22;17.38;;;6.93;;
61104;SDS011;46987;32.638;-115.438;2022-12-24T00:46:50;28.67;;;9.63;;
61104;SDS011;46987;32.638;-115.438;2022-12-24T00:49:17;24.67;;;10.05;;
61104;SDS011;46987;32.638;-115.438;2022-12-24T00:51:43;25.65;;;9.95;;
61104;SDS011;46987;32.638;-115.438;2022-12-24T00:54:09;26.33;;;10.38;;
61104;SDS011;46987;32.638;-115.438;2022-12-24T00:56:36;23.65;;;8.20;;
61104;SDS011;46987;32.638;-115.438;2022-12-24T00:59:03;23.05;;;8.27;;
61104;SDS011;46987;32.638;-115.438;2022-12-24T01:01:32;19.13;;;8.30;;
61104;SDS011;46987;32.638;-115.438;2022-12-24T01:04:02;28.45;;;8.38;;
61104;SDS011;46987;32.638;-115.438;2022-12-24T01:06:47;27.40;;;9.30;;
61104;SDS011;46987;32.638;-115.438;2022-12-24T01:09:13;26.63;;;8.98;;
61104;SDS011;46987;32.638;-115.438;2022-12-24T01:11:40;28.60;;;8.95;;
61104;SDS011;46987;32.638;-115.438;2022-12-24T01:14:07;35.72;;;9.70;;
61104;SDS011;46987;32.638;-115.438;2022-12-24T01:16:33;36.20;;;8.73;;
61104;SDS011;46987;32.638;-115.438;2022-12-24T01:19:00;25.15;;;8.30;;
61104;SDS011;46987;32.638;-115.438;2022-12-24T01:21:28;30.63;;;10.43;;
61104;SDS011;46987;32.638;-115.438;2022-12-24T01:23:58;25.98;;;10.27;;
61104;SDS011;46987;32.638;-115.438;2022-12-24T01:26:24;22.67;;;9.15;;
61104;SDS011;46987;32.638;-115.438;2022-12-24T01:28:51;37.10;;;10.45;;
61104;SDS011;46987;32.638;-115.438;2022-12-24T01:31:17;34.28;;;9.63;;
61104;SDS011;46987;32.638;-115.438;2022-12-24T01:33:45;38.88;;;12.65;;
61104;SDS011;46987;32.638;-115.438;2022-12-24T01:36:12;31.48;;;11.27;;
61104;SDS011;46987;32.638;-115.438;2022-12-24T01:38:40;37.15;;;11.95;;
61104;SDS011;46987;32.638;-115.438;2022-12-24T01:41:10;45.53;;;12.27;;
61104;SDS011;46987;32.638;-115.438;2022-12-24T01:43:57;32.03;;;11.98;;
61104;SDS011;46987;32.638;-115.438;2022-12-24T01:46:24;38.85;;;11.93;;
61104;SDS011;46987;32.638;-115.438;2022-12-24T01:48:52;35.78;;;12.93;;
61104;SDS011;46987;32.638;-115.438;2022-12-24T01:51:21;31.67;;;12.07;;
61104;SDS011;46987;32.638;-115.438;2022-12-24T01:53:51;35.15;;;12.77;;
61104;SDS011;46987;32.638;-115.438;2022-12-24T01:56:20;36.78;;;14.07;;
61104;SDS011;46987;32.638;-115.438;2022-12-24T01:58:47;35.63;;;12.50;;
61104;SDS011;46987;32.638;-115.438;2022-12-24T02:01:16;39.03;;;13.20;;
61104;SDS011;46987;32.638;-115.438;2022-12-24T02:03:42;37.78;;;14.18;;
61104;SDS011;46987;32.638;-115.438;2022-12-24T02:06:09;35.25;;;13.38;;
61104;SDS011;46987;32.638;-115.438;2022-12-24T02:08:40;40.88;;;13.43;;
61104;SDS011;46987;32.638;-115.438;2022-12-24T02:11:13;39.97;;;14.40;;
61104;SDS011;46987;32.638;-115.438;2022-12-24T02:13:40;49.25;;;14.73;;
61104;SDS011;46987;32.638;-115.438;2022-12-24T02:16:09;52.83;;;16.85;;
61104;SDS011;46987;32.638;-115.438;2022-12-24T02:18:40;54.63;;;18.20;;
61104;SDS011;46987;32.638;-115.438;2022-12-24T02:21:18;46.88;;;17.13;;
61104;SDS011;46987;32.638;-115.438;2022-12-24T02:26:37;37.92;;;15.35;;
61104;SDS011;46987;32.638;-115.438;2022-12-24T02:29:15;43.75;;;14.80;;
61104;SDS011;46987;32.638;-115.438;2022-12-24T02:31:45;38.80;;;15.13;;
61104;SDS011;46987;32.638;-115.438;2022-12-24T02:34:15;37.45;;;15.45;;
61104;SDS011;46987;32.638;-115.438;2022-12-24T02:36:46;36.05;;;14.82;;
61104;SDS011;46987;32.638;-115.438;2022-12-24T02:39:14;33.05;;;15.55;;
61104;SDS011;46987;32.638;-115.438;2022-12-24T02:41:42;36.13;;;15.38;;
61104;SDS011;46987;32.638;-115.438;2022-12-24T02:44:29;57.85;;;17.48;;
61104;SDS011;46987;32.638;-115.438;2022-12-24T02:46:58;45.95;;;17.83;;
61104;SDS011;46987;32.638;-115.438;2022-12-24T02:49:25;40.00;;;17.27;;
61104;SDS011;46987;32.638;-115.438;2022-12-24T02:51:52;41.05;;;17.25;;
61104;SDS011;46987;32.638;-115.438;2022-12-24T02:54:18;44.05;;;16.63;;
61104;SDS011;46987;32.638;-115.438;2022-12-24T02:56:49;47.70;;;18.70;;
61104;SDS011;46987;32.638;-115.438;2022-12-24T03:02:06;42.75;;;15.85;;
61104;SDS011;46987;32.638;-115.438;2022-12-24T03:04:36;50.70;;;16.90;;
61104;SDS011;46987;32.638;-115.438;2022-12-24T03:07:06;45.65;;;17.08;;
61104;SDS011;46987;32.638;-115.438;2022-12-24T03:09:35;50.67;;;18.13;;
61104;SDS011;46987;32.638;-115.438;2022-12-24T03:12:04;40.08;;;18.08;;
61104;SDS011;46987;32.638;-115.438;2022-12-24T03:14:33;42.70;;;17.40;;
61104;SDS011;46987;32.638;-115.438;2022-12-24T03:17:00;44.13;;;22.20;;
61104;SDS011;46987;32.638;-115.438;2022-12-24T03:19:29;64.90;;;24.58;;
61104;SDS011;46987;32.638;-115.438;2022-12-24T03:21:56;49.33;;;23.63;;
61104;SDS011;46987;32.638;-115.438;2022-12-24T03:24:24;59.85;;;24.02;;
61104;SDS011;46987;32.638;-115.438;2022-12-24T03:26:51;50.85;;;23.60;;
61104;SDS011;46987;32.638;-115.438;2022-12-24T03:29:18;59.92;;;25.48;;
61104;SDS011;46987;32.638;-115.438;2022-12-24T03:31:45;53.03;;;26.42;;
61104;SDS011;46987;32.638;-115.438;2022-12-24T03:34:12;62.08;;;26.73;;
61104;SDS011;46987;32.638;-115.438;2022-12-24T03:36:41;64.05;;;24.73;;
61104;SDS011;46987;32.638;-115.438;2022-12-24T03:39:08;59.63;;;25.30;;
61104;SDS011;46987;32.638;-115.438;2022-12-24T03:41:45;60.42;;;25.58;;
61104;SDS011;46987;32.638;-115.438;2022-12-24T03:47:18;58.30;;;26.52;;
61104;SDS011;46987;32.638;-115.438;2022-12-24T03:49:45;57.47;;;26.08;;
61104;SDS011;46987;32.638;-115.438;2022-12-24T03:52:13;80.88;;;50.47;;
61104;SDS011;46987;32.638;-115.438;2022-12-24T03:54:40;105.13;;;36.88;;
61104;SDS011;46987;32.638;-115.438;2022-12-24T03:57:07;69.15;;;28.27;;
61104;SDS011;46987;32.638;-115.438;2022-12-24T03:59:33;59.38;;;25.40;;
61104;SDS011;46987;32.638;-115.438;2022-12-24T04:02:00;56.40;;;25.75;;
61104;SDS011;46987;32.638;-115.438;2022-12-24T04:04:26;57.55;;;24.23;;
61104;SDS011;46987;32.638;-115.438;2022-12-24T04:06:53;51.92;;;21.92;;
61104;SDS011;46987;32.638;-115.438;2022-12-24T04:09:21;67.43;;;24.15;;
61104;SDS011;46987;32.638;-115.438;2022-12-24T04:11:50;50.45;;;21.77;;
61104;SDS011;46987;32.638;-115.438;2022-12-24T04:14:17;57.30;;;22.98;;
61104;SDS011;46987;32.638;-115.438;2022-12-24T04:16:49;61.13;;;23.50;;
61104;SDS011;46987;32.638;-115.438;2022-12-24T04:19:15;51.85;;;23.77;;
61104;SDS011;46987;32.638;-115.438;2022-12-24T04:21:42;43.42;;;21.10;;
61104;SDS011;46987;32.638;-115.438;2022-12-24T04:24:17;58.95;;;20.58;;
61104;SDS011;46987;32.638;-115.438;2022-12-24T04:26:49;50.25;;;20.70;;
61104;SDS011;46987;32.638;-115.438;2022-12-24T04:29:18;60.35;;;22.58;;
61104;SDS011;46987;32.638;-115.438;2022-12-24T04:31:44;54.55;;;21.90;;
61104;SDS011;46987;32.638;-115.438;2022-12-24T04:34:11;44.13;;;21.77;;
61104;SDS011;46987;32.638;-115.438;2022-12-24T04:36:55;46.22;;;21.20;;
61104;SDS011;46987;32.638;-115.438;2022-12-24T04:39:22;46.33;;;20.70;;
61104;SDS011;46987;32.638;-115.438;2022-12-24T04:41:50;50.45;;;23.65;;
61104;SDS011;46987;32.638;-115.438;2022-12-24T04:44:20;66.63;;;31.98;;
61104;SDS011;46987;32.638;-115.438;2022-12-24T04:46:46;47.85;;;26.70;;
61104;SDS011;46987;32.638;-115.438;2022-12-24T04:49:13;76.43;;;40.35;;
61104;SDS011;46987;32.638;-115.438;2022-12-24T04:51:39;82.30;;;40.30;;
61104;SDS011;46987;32.638;-115.438;2022-12-24T04:54:08;79.05;;;39.47;;
61104;SDS011;46987;32.638;-115.438;2022-12-24T04:56:35;89.93;;;44.63;;
61104;SDS011;46987;32.638;-115.438;2022-12-24T04:59:03;85.05;;;41.08;;
61104;SDS011;46987;32.638;-115.438;2022-12-24T05:01:30;81.10;;;43.42;;
61104;SDS011;46987;32.638;-115.438;2022-12-24T05:03:57;82.57;;;45.35;;
61104;SDS011;46987;32.638;-115.438;2022-12-24T05:06:28;78.55;;;40.92;;
61104;SDS011;46987;32.638;-115.438;2022-12-24T05:08:59;73.30;;;37.60;;
61104;SDS011;46987;32.638;-115.438;2022-12-24T05:11:31;66.18;;;35.58;;
61104;SDS011;46987;32.638;-115.438;2022-12-24T05:13:58;68.40;;;33.33;;
61104;SDS011;46987;32.638;-115.438;2022-12-24T05:16:26;58.47;;;33.28;;
61104;SDS011;46987;32.638;-115.438;2022-12-24T05:18:52;62.53;;;33.45;;
61104;SDS011;46987;32.638;-115.438;2022-12-24T05:21:23;63.83;;;31.45;;
61104;SDS011;46987;32.638;-115.438;2022-12-24T05:23:53;61.58;;;31.10;;
61104;SDS011;46987;32.638;-115.438;2022-12-24T05:26:38;59.10;;;28.77;;
61104;SDS011;46987;32.638;-115.438;2022-12-24T05:29:08;55.65;;;28.52;;
61104;SDS011;46987;32.638;-115.438;2022-12-24T05:31:36;55.20;;;27.95;;
61104;SDS011;46987;32.638;-115.438;2022-12-24T05:34:05;66.00;;;27.80;;
61104;SDS011;46987;32.638;-115.438;2022-12-24T05:36:32;57.13;;;26.35;;
61104;SDS011;46987;32.638;-115.438;2022-12-24T05:38:59;58.20;;;28.45;;
61104;SDS011;46987;32.638;-115.438;2022-12-24T05:41:26;64.10;;;27.42;;
61104;SDS011;46987;32.638;-115.438;2022-12-24T05:43:52;58.78;;;27.45;;
61104;SDS011;46987;32.638;-115.438;2022-12-24T05:46:19;75.13;;;28.40;;
61104;SDS011;46987;32.638;-115.438;2022-12-24T05:48:48;63.15;;;28.85;;
61104;SDS011;46987;32.638;-115.438;2022-12-24T05:51:15;67.70;;;29.48;;
61104;SDS011;46987;32.638;-115.438;2022-12-24T05:53:44;80.57;;;29.95;;
61104;SDS011;46987;32.638;-115.438;2022-12-24T05:56:12;68.47;;;30.02;;
61104;SDS011;46987;32.638;-115.438;2022-12-24T05:58:39;69.68;;;31.25;;
61104;SDS011;46987;32.638;-115.438;2022-12-24T06:01:05;62.85;;;30.63;;
61104;SDS011;46987;32.638;-115.438;2022-12-24T06:03:32;57.33;;;30.05;;
61104;SDS011;46987;32.638;-115.438;2022-12-24T06:06:02;56.60;;;28.73;;
61104;SDS011;46987;32.638;-115.438;2022-12-24T06:08:29;65.85;;;29.73;;
61104;SDS011;46987;32.638;-115.438;2022-12-24T06:10:56;62.28;;;26.80;;
61104;SDS011;46987;32.638;-115.438;2022-12-24T06:13:23;61.85;;;25.48;;
61104;SDS011;46987;32.638;-115.438;2022-12-24T06:15:50;58.38;;;26.27;;
61104;SDS011;46987;32.638;-115.438;2022-12-24T06:18:17;55.20;;;25.27;;
61104;SDS011;46987;32.638;-115.438;2022-12-24T06:20:43;60.20;;;24.98;;
61104;SDS011;46987;32.638;-115.438;2022-12-24T06:23:17;47.38;;;23.80;;
61104;SDS011;46987;32.638;-115.438;2022-12-24T06:25:44;42.50;;;25.10;;
61104;SDS011;46987;32.638;-115.438;2022-12-24T06:28:11;51.40;;;22.60;;
61104;SDS011;46987;32.638;-115.438;2022-12-24T06:30:37;44.33;;;23.45;;
61104;SDS011;46987;32.638;-115.438;2022-12-24T06:33:09;50.63;;;23.45;;
61104;SDS011;46987;32.638;-115.438;2022-12-24T06:35:36;41.20;;;20.57;;
61104;SDS011;46987;32.638;-115.438;2022-12-24T06:38:02;41.53;;;19.60;;
61104;SDS011;46987;32.638;-115.438;2022-12-24T06:40:30;38.60;;;18.05;;
61104;SDS011;46987;32.638;-115.438;2022-12-24T06:42:57;40.45;;;20.20;;
61104;SDS011;46987;32.638;-115.438;2022-12-24T06:45:23;40.83;;;18.48;;
61104;SDS011;46987;32.638;-115.438;2022-12-24T06:47:50;33.17;;;15.63;;
61104;SDS011;46987;32.638;-115.438;2022-12-24T06:50:17;38.20;;;16.40;;
61104;SDS011;46987;32.638;-115.438;2022-12-24T06:52:43;35.65;;;16.88;;
61104;SDS011;46987;32.638;-115.438;2022-12-24T06:55:09;40.00;;;17.20;;
61104;SDS011;46987;32.638;-115.438;2022-12-24T06:57:38;33.72;;;16.15;;
61104;SDS011;46987;32.638;-115.438;2022-12-24T07:00:05;38.78;;;16.27;;
61104;SDS011;46987;32.638;-115.438;2022-12-24T07:02:32;39.00;;;17.55;;
61104;SDS011;46987;32.638;-115.438;2022-12-24T07:04:59;33.95;;;16.23;;
61104;SDS011;46987;32.638;-115.438;2022-12-24T07:07:26;33.35;;;14.45;;
61104;SDS011;46987;32.638;-115.438;2022-12-24T07:09:52;39.83;;;17.80;;
61104;SDS011;46987;32.638;-115.438;2022-12-24T07:12:18;37.50;;;15.30;;
61104;SDS011;46987;32.638;-115.438;2022-12-24T07:14:47;38.55;;;14.88;;
61104;SDS011;46987;32.638;-115.438;2022-12-24T07:17:13;33.90;;;14.98;;
61104;SDS011;46987;32.638;-115.438;2022-12-24T07:19:40;29.65;;;15.43;;
61104;SDS011;46987;32.638;-115.438;2022-12-24T07:22:06;28.60;;;14.18;;
61104;SDS011;46987;32.638;-115.438;2022-12-24T07:24:33;29.17;;;13.88;;
61104;SDS011;46987;32.638;-115.438;2022-12-24T07:27:00;28.80;;;14.70;;
61104;SDS011;46987;32.638;-115.438;2022-12-24T07:29:26;35.05;;;16.08;;
61104;SDS011;46987;32.638;-115.438;2022-12-24T07:31:55;27.65;;;16.27;;
61104;SDS011;46987;32.638;-115.438;2022-12-24T07:34:21;41.30;;;15.40;;
61104;SDS011;46987;32.638;-115.438;2022-12-24T07:36:47;28.75;;;14.73;;
61104;SDS011;46987;32.638;-115.438;2022-12-24T07:39:14;33.50;;;15.65;;
61104;SDS011;46987;32.638;-115.438;2022-12-24T07:41:40;35.33;;;15.07;;
61104;SDS011;46987;32.638;-115.438;2022-12-24T07:44:10;34.47;;;16.58;;
61104;SDS011;46987;32.638;-115.438;2022-12-24T07:46:37;36.55;;;16.52;;
61104;SDS011;46987;32.638;-115.438;2022-12-24T07:49:05;36.35;;;19.25;;
61104;SDS011;46987;32.638;-115.438;2022-12-24T07:51:32;39.58;;;20.67;;
61104;SDS011;46987;32.638;-115.438;2022-12-24T07:53:59;44.85;;;21.67;;
61104;SDS011;46987;32.638;-115.438;2022-12-24T07:56:26;35.80;;;18.15;;
61104;SDS011;46987;32.638;-115.438;2022-12-24T07:58:52;37.35;;;19.95;;
61104;SDS011;46987;32.638;-115.438;2022-12-24T08:01:19;39.10;;;18.98;;
61104;SDS011;46987;32.638;-115.438;2022-12-24T08:03:45;42.40;;;19.90;;
61104;SDS011;46987;32.638;-115.438;2022-12-24T08:06:13;39.30;;;19.42;;
61104;SDS011;46987;32.638;-115.438;2022-12-24T08:08:40;41.75;;;22.05;;
61104;SDS011;46987;32.638;-115.438;2022-12-24T08:11:06;36.05;;;17.83;;
61104;SDS011;46987;32.638;-115.438;2022-12-24T08:13:33;42.13;;;17.58;;
61104;SDS011;46987;32.638;-115.438;2022-12-24T08:16:00;38.58;;;17.60;;
61104;SDS011;46987;32.638;-115.438;2022-12-24T08:18:26;32.53;;;15.32;;
61104;SDS011;46987;32.638;-115.438;2022-12-24T08:20:53;42.60;;;17.10;;
61104;SDS011;46987;32.638;-115.438;2022-12-24T08:23:21;36.50;;;14.57;;
61104;SDS011;46987;32.638;-115.438;2022-12-24T08:25:48;33.17;;;14.38;;
61104;SDS011;46987;32.638;-115.438;2022-12-24T08:28:15;32.38;;;13.88;;
61104;SDS011;46987;32.638;-115.438;2022-12-24T08:30:42;33.42;;;13.60;;
61104;SDS011;46987;32.638;-115.438;2022-12-24T08:33:09;27.52;;;12.43;;
61104;SDS011;46987;32.638;-115.438;2022-12-24T08:35:35;24.00;;;11.13;;
61104;SDS011;46987;32.638;-115.438;2022-12-24T08:38:03;23.85;;;11.68;;
61104;SDS011;46987;32.638;-115.438;2022-12-24T08:40:31;33.25;;;12.32;;
61104;SDS011;46987;32.638;-115.438;2022-12-24T08:42:58;20.95;;;11.35;;
61104;SDS011;46987;32.638;-115.438;2022-12-24T08:45:26;24.75;;;11.13;;
61104;SDS011;46987;32.638;-115.438;2022-12-24T08:47:53;31.20;;;12.18;;
61104;SDS011;46987;32.638;-115.438;2022-12-24T08:50:19;20.50;;;10.50;;
61104;SDS011;46987;32.638;-115.438;2022-12-24T08:52:46;23.58;;;11.13;;
61104;SDS011;46987;32.638;-115.438;2022-12-24T08:55:12;23.58;;;10.75;;
61104;SDS011;46987;32.638;-115.438;2022-12-24T08:57:40;27.60;;;11.57;;
61104;SDS011;46987;32.638;-115.438;2022-12-24T09:00:07;23.42;;;11.88;;
61104;SDS011;46987;32.638;-115.438;2022-12-24T09:02:34;27.80;;;12.40;;
61104;SDS011;46987;32.638;-115.438;2022-12-24T09:05:01;24.67;;;12.45;;
61104;SDS011;46987;32.638;-115.438;2022-12-24T09:07:27;30.25;;;12.45;;
61104;SDS011;46987;32.638;-115.438;2022-12-24T09:09:54;28.25;;;12.32;;
61104;SDS011;46987;32.638;-115.438;2022-12-24T09:12:20;21.67;;;12.38;;
61104;SDS011;46987;32.638;-115.438;2022-12-24T09:14:51;24.13;;;12.05;;
61104;SDS011;46987;32.638;-115.438;2022-12-24T09:17:19;18.42;;;11.60;;
61104;SDS011;46987;32.638;-115.438;2022-12-24T09:19:45;19.67;;;10.23;;
61104;SDS011;46987;32.638;-115.438;2022-12-24T09:22:12;20.55;;;9.25;;
61104;SDS011;46987;32.638;-115.438;2022-12-24T09:24:38;22.67;;;8.68;;
61104;SDS011;46987;32.638;-115.438;2022-12-24T09:27:05;13.73;;;7.28;;
61104;SDS011;46987;32.638;-115.438;2022-12-24T09:29:31;13.98;;;6.43;;
61104;SDS011;46987;32.638;-115.438;2022-12-24T09:31:59;15.18;;;6.15;;
61104;SDS011;46987;32.638;-115.438;2022-12-24T09:34:26;10.55;;;5.53;;
61104;SDS011;46987;32.638;-115.438;2022-12-24T09:36:52;10.18;;;5.38;;
61104;SDS011;46987;32.638;-115.438;2022-12-24T09:39:19;9.93;;;5.25;;
61104;SDS011;46987;32.638;-115.438;2022-12-24T09:41:48;11.43;;;5.30;;
61104;SDS011;46987;32.638;-115.438;2022-12-24T09:44:21;9.23;;;4.10;;
61104;SDS011;46987;32.638;-115.438;2022-12-24T09:46:52;10.52;;;4.10;;
61104;SDS011;46987;32.638;-115.438;2022-12-24T09:49:21;8.25;;;3.75;;
61104;SDS011;46987;32.638;-115.438;2022-12-24T09:51:50;10.27;;;4.70;;
61104;SDS011;46987;32.638;-115.438;2022-12-24T09:54:18;8.93;;;3.58;;
61104;SDS011;46987;32.638;-115.438;2022-12-24T09:56:47;7.28;;;4.00;;
61104;SDS011;46987;32.638;-115.438;2022-12-24T09:59:15;13.20;;;3.85;;
61104;SDS011;46987;32.638;-115.438;2022-12-24T10:01:42;10.50;;;4.05;;
61104;SDS011;46987;32.638;-115.438;2022-12-24T10:04:09;10.20;;;5.32;;
61104;SDS011;46987;32.638;-115.438;2022-12-24T10:06:39;9.90;;;5.10;;
61104;SDS011;46987;32.638;-115.438;2022-12-24T10:09:10;14.32;;;5.43;;
61104;SDS011;46987;32.638;-115.438;2022-12-24T10:11:41;14.98;;;5.55;;
61104;SDS011;46987;32.638;-115.438;2022-12-24T10:14:12;17.50;;;6.30;;
61104;SDS011;46987;32.638;-115.438;2022-12-24T10:16:46;15.00;;;5.93;;
61104;SDS011;46987;32.638;-115.438;2022-12-24T10:19:16;15.30;;;6.90;;
61104;SDS011;46987;32.638;-115.438;2022-12-24T10:21:48;14.27;;;7.32;;
61104;SDS011;46987;32.638;-115.438;2022-12-24T10:24:17;16.73;;;7.90;;
61104;SDS011;46987;32.638;-115.438;2022-12-24T10:26:49;16.73;;;8.95;;
61104;SDS011;46987;32.638;-115.438;2022-12-24T10:29:17;22.92;;;10.25;;
61104;SDS011;46987;32.638;-115.438;2022-12-24T10:34:27;17.30;;;8.55;;
61104;SDS011;46987;32.638;-115.438;2022-12-24T10:36:57;14.95;;;8.52;;
61104;SDS011;46987;32.638;-115.438;2022-12-24T10:39:25;21.42;;;10.45;;
61104;SDS011;46987;32.638;-115.438;2022-12-24T10:41:54;17.65;;;8.93;;
61104;SDS011;46987;32.638;-115.438;2022-12-24T10:44:23;16.80;;;8.80;;
61104;SDS011;46987;32.638;-115.438;2022-12-24T10:46:51;16.73;;;8.15;;
61104;SDS011;46987;32.638;-115.438;2022-12-24T10:49:18;16.23;;;8.05;;
61104;SDS011;46987;32.638;-115.438;2022-12-24T10:51:46;12.63;;;6.90;;
61104;SDS011;46987;32.638;-115.438;2022-12-24T10:54:15;13.77;;;7.70;;
61104;SDS011;46987;32.638;-115.438;2022-12-24T10:56:43;16.38;;;7.15;;
61104;SDS011;46987;32.638;-115.438;2022-12-24T10:59:21;14.32;;;7.53;;
61104;SDS011;46987;32.638;-115.438;2022-12-24T11:01:48;15.80;;;7.10;;
61104;SDS011;46987;32.638;-115.438;2022-12-24T11:04:15;12.25;;;6.72;;
61104;SDS011;46987;32.638;-115.438;2022-12-24T11:06:50;10.32;;;5.78;;
61104;SDS011;46987;32.638;-115.438;2022-12-24T11:09:20;15.57;;;6.75;;
61104;SDS011;46987;32.638;-115.438;2022-12-24T11:11:47;17.10;;;6.90;;
61104;SDS011;46987;32.638;-115.438;2022-12-24T11:14:15;15.27;;;6.45;;
61104;SDS011;46987;32.638;-115.438;2022-12-24T11:16:46;11.60;;;7.03;;
61104;SDS011;46987;32.638;-115.438;2022-12-24T11:19:14;13.75;;;6.00;;
61104;SDS011;46987;32.638;-115.438;2022-12-24T11:21:41;12.60;;;6.10;;
61104;SDS011;46987;32.638;-115.438;2022-12-24T11:24:16;12.45;;;6.13;;
61104;SDS011;46987;32.638;-115.438;2022-12-24T11:26:48;10.15;;;7.13;;
61104;SDS011;46987;32.638;-115.438;2022-12-24T11:29:15;11.50;;;6.50;;
61104;SDS011;46987;32.638;-115.438;2022-12-24T11:31:42;14.45;;;6.80;;
61104;SDS011;46987;32.638;-115.438;2022-12-24T11:34:22;16.00;;;6.43;;
61104;SDS011;46987;32.638;-115.438;2022-12-24T11:36:49;10.55;;;6.35;;
61104;SDS011;46987;32.638;-115.438;2022-12-24T11:39:17;15.40;;;7.78;;
61104;SDS011;46987;32.638;-115.438;2022-12-24T11:41:45;13.27;;;7.43;;
61104;SDS011;46987;32.638;-115.438;2022-12-24T11:44:13;18.48;;;7.32;;
61104;SDS011;46987;32.638;-115.438;2022-12-24T11:46:40;15.43;;;7.60;;
61104;SDS011;46987;32.638;-115.438;2022-12-24T11:49:21;14.82;;;7.63;;
61104;SDS011;46987;32.638;-115.438;2022-12-24T11:52:10;17.23;;;7.45;;
61104;SDS011;46987;32.638;-115.438;2022-12-24T11:54:42;15.07;;;6.97;;
61104;SDS011;46987;32.638;-115.438;2022-12-24T11:57:10;15.15;;;7.50;;
61104;SDS011;46987;32.638;-115.438;2022-12-24T11:59:40;17.65;;;8.00;;
61104;SDS011;46987;32.638;-115.438;2022-12-24T12:02:11;16.17;;;6.97;;
61104;SDS011;46987;32.638;-115.438;2022-12-24T12:04:39;17.08;;;7.00;;
61104;SDS011;46987;32.638;-115.438;2022-12-24T12:07:09;17.30;;;7.65;;
61104;SDS011;46987;32.638;-115.438;2022-12-24T12:09:40;13.43;;;7.22;;
61104;SDS011;46987;32.638;-115.438;2022-12-24T12:12:08;17.02;;;8.23;;
61104;SDS011;46987;32.638;-115.438;2022-12-24T12:14:36;14.02;;;7.07;;
61104;SDS011;46987;32.638;-115.438;2022-12-24T12:17:20;13.52;;;6.28;;
61104;SDS011;46987;32.638;-115.438;2022-12-24T12:19:51;12.18;;;7.32;;
61104;SDS011;46987;32.638;-115.438;2022-12-24T12:22:21;22.98;;;7.80;;
61104;SDS011;46987;32.638;-115.438;2022-12-24T12:24:49;17.20;;;6.78;;
61104;SDS011;46987;32.638;-115.438;2022-12-24T12:27:19;12.48;;;7.18;;
61104;SDS011;46987;32.638;-115.438;2022-12-24T12:29:48;14.50;;;6.70;;
61104;SDS011;46987;32.638;-115.438;2022-12-24T12:32:22;25.73;;;8.80;;
61104;SDS011;46987;32.638;-115.438;2022-12-24T12:34:53;16.55;;;9.00;;
61104;SDS011;46987;32.638;-115.438;2022-12-24T12:37:21;15.77;;;8.18;;
61104;SDS011;46987;32.638;-115.438;2022-12-24T12:39:50;23.13;;;8.95;;
61104;SDS011;46987;32.638;-115.438;2022-12-24T12:42:17;18.65;;;8.65;;
61104;SDS011;46987;32.638;-115.438;2022-12-24T12:47:41;15.65;;;8.30;;
61104;SDS011;46987;32.638;-115.438;2022-12-24T12:50:12;18.67;;;9.00;;
61104;SDS011;46987;32.638;-115.438;2022-12-24T12:52:59;22.67;;;8.48;;
61104;SDS011;46987;32.638;-115.438;2022-12-24T12:55:32;19.23;;;8.30;;
61104;SDS011;46987;32.638;-115.438;2022-12-24T12:58:02;15.48;;;8.60;;
61104;SDS011;46987;32.638;-115.438;2022-12-24T13:00:30;22.25;;;10.32;;
61104;SDS011;46987;32.638;-115.438;2022-12-24T13:03:09;18.45;;;8.70;;
61104;SDS011;46987;32.638;-115.438;2022-12-24T13:06:00;19.33;;;10.98;;
61104;SDS011;46987;32.638;-115.438;2022-12-24T13:11:33;21.60;;;11.45;;
61104;SDS011;46987;32.638;-115.438;2022-12-24T13:16:54;22.50;;;12.77;;
61104;SDS011;46987;32.638;-115.438;2022-12-24T13:19:27;21.30;;;13.40;;
61104;SDS011;46987;32.638;-115.438;2022-12-24T13:21:57;20.25;;;11.68;;
61104;SDS011;46987;32.638;-115.438;2022-12-24T13:24:23;21.95;;;12.85;;
61104;SDS011;46987;32.638;-115.438;2022-12-24T13:27:01;22.10;;;12.80;;
61104;SDS011;46987;32.638;-115.438;2022-12-24T13:29:29;29.40;;;13.45;;
61104;SDS011;46987;32.638;-115.438;2022-12-24T13:32:10;25.52;;;13.98;;
61104;SDS011;46987;32.638;-115.438;2022-12-24T13:35:00;29.48;;;13.27;;
61104;SDS011;46987;32.638;-115.438;2022-12-24T13:37:31;28.35;;;13.07;;
61104;SDS011;46987;32.638;-115.438;2022-12-24T13:42:49;23.48;;;13.13;;
61104;SDS011;46987;32.638;-115.438;2022-12-24T13:48:01;26.95;;;13.55;;
61104;SDS011;46987;32.638;-115.438;2022-12-24T13:50:35;25.92;;;13.90;;
61104;SDS011;46987;32.638;-115.438;2022-12-24T13:53:03;34.20;;;15.70;;
61104;SDS011;46987;32.638;-115.438;2022-12-24T13:55:30;36.13;;;16.65;;
61104;SDS011;46987;32.638;-115.438;2022-12-24T13:57:57;37.65;;;18.27;;
61104;SDS011;46987;32.638;-115.438;2022-12-24T14:00:31;28.90;;;16.88;;
61104;SDS011;46987;32.638;-115.438;2022-12-24T14:03:00;43.78;;;19.42;;
61104;SDS011;46987;32.638;-115.438;2022-12-24T14:05:30;32.92;;;17.17;;
61104;SDS011;46987;32.638;-115.438;2022-12-24T14:07:59;34.35;;;17.65;;
61104;SDS011;46987;32.638;-115.438;2022-12-24T14:10:27;29.98;;;17.42;;
61104;SDS011;46987;32.638;-115.438;2022-12-24T14:12:55;37.85;;;17.55;;
61104;SDS011;46987;32.638;-115.438;2022-12-24T14:18:07;31.65;;;17.42;;
61104;SDS011;46987;32.638;-115.438;2022-12-24T14:20:33;40.50;;;17.42;;
61104;SDS011;46987;32.638;-115.438;2022-12-24T14:23:04;35.65;;;17.77;;
61104;SDS011;46987;32.638;-115.438;2022-12-24T14:25:32;32.33;;;16.50;;